EmailTwitter


Observations de surface / France / LFMK (07635)

Régions: Québec | Canada | États-Unis | Europe | France | UK | Elsewhere
Station
Affichage
Infos & localisation pour LFMK (07635) | Aide pour décoder les METARs

Observations prises le 2017-05-28 à 20H00 UTC à CARCASSONNE/SALV, FR (LFMK)

Température: 20.0 Celsius

Point de rosée: 12.0 Celsius

Humidité relative: 60%

Vents: Est à 26 km/h ou 14 noeuds.

Pression au niveau moyen de la mer: 101.70 kilopascals.

Observation METAR:

LFMK 282000Z AUTO 10014KT 070V130 CAVOK 20/12 Q1017=